Time,TemperatureF,DewpointF,PressureIn,WindDirection,WindDirectionDegrees,WindSpeedMPH,WindSpeedGustMPH,Humidity,HourlyPrecipIn,Conditions,Clouds,dailyrainin,SoftwareType,DateUTC
2013-02-25 00:01:00,34.9,25.8,29.88,ESE,111,3.5,3.5,69,0.00,RA,,0.00,WeatherDisplay:10.37,2013-02-25 06:01:00,
2013-02-25 00:06:00,34.8,25.7,29.88,ESE,111,2.3,2.3,69,0.00,RA,,0.00,WeatherDisplay:10.37,2013-02-25 06:06:00,
2013-02-25 00:11:00,34.7,25.9,29.88,ESE,111,3.5,3.5,70,0.00,CLR,,0.00,WeatherDisplay:10.37,2013-02-25 06:11:00,
2013-02-25 00:16:00,34.6,25.8,29.88,ESE,111,3.5,3.5,70,0.00,CLR,,0.00,WeatherDisplay:10.37,2013-02-25 06:16:00,
2013-02-25 00:21:00,34.5,25.7,29.88,ESE,111,2.3,2.3,70,0.00,CLR,,0.00,WeatherDisplay:10.37,2013-02-25 06:21:00,
2013-02-25 00:26:00,34.4,25.6,29.88,ESE,111,2.3,2.3,70,0.00,CLR,,0.00,WeatherDisplay:10.37,2013-02-25 06:26:00,
2013-02-25 00:31:00,34.4,25.6,29.87,ESE,111,3.5,3.5,70,0.00,CLR,,0.00,WeatherDisplay:10.37,2013-02-25 06:31:00,
2013-02-25 00:36:00,34.4,25.6,29.87,ESE,111,2.3,2.3,70,0.00,CLR,,0.00,WeatherDisplay:10.37,2013-02-25 06:36:00,
2013-02-25 00:41:00,34.4,26.0,29.87,ESE,111,4.6,4.6,71,0.00,CLR,,0.00,WeatherDisplay:10.37,2013-02-25 06:41:00,
2013-02-25 00:46:00,34.4,26.0,29.86,ESE,111,3.5,3.5,71,0.00,CLR,,0.00,WeatherDisplay:10.37,2013-02-25 06:46:00,
2013-02-25 00:51:00,34.4,26.0,29.87,ESE,111,2.3,2.3,71,0.00,CLR,,0.00,WeatherDisplay:10.37,2013-02-25 06:51:00,
2013-02-25 00:56:00,34.4,26.0,29.87,ESE,111,1.2,1.2,71,0.00,CLR,,0.00,WeatherDisplay:10.37,2013-02-25 06:56:00,
2013-02-25 01:01:00,34.4,26.0,29.87,ESE,111,3.5,3.5,71,0.00,CLR,,0.00,WeatherDisplay:10.37,2013-02-25 07:01:00,
2013-02-25 01:06:00,34.3,25.9,29.86,ESE,111,3.5,3.5,71,0.00,CLR,,0.00,WeatherDisplay:10.37,2013-02-25 07:06:00,
2013-02-25 01:11:00,34.1,25.7,29.86,ESE,111,1.2,1.2,71,0.00,CLR,,0.00,WeatherDisplay:10.37,2013-02-25 07:11:00,
2013-02-25 01:16:00,34.0,25.6,29.86,ESE,111,3.5,3.5,71,0.00,CLR,,0.00,WeatherDisplay:10.37,2013-02-25 07:16:00,
2013-02-25 01:21:00,33.9,25.5,29.86,ESE,111,3.5,3.5,71,0.00,CLR,,0.00,WeatherDisplay:10.37,2013-02-25 07:21:00,
2013-02-25 01:26:00,33.8,25.4,29.87,ESE,111,2.3,2.3,71,0.00,CLR,,0.00,WeatherDisplay:10.37,2013-02-25 07:26:00,
2013-02-25 01:31:00,33.6,25.2,29.87,ESE,111,1.2,1.2,71,0.00,CLR,,0.00,WeatherDisplay:10.37,2013-02-25 07:31:00,
2013-02-25 01:36:00,33.5,25.4,29.88,ESE,111,2.3,2.3,72,0.00,CLR,,0.00,WeatherDisplay:10.37,2013-02-25 07:36:00,
2013-02-25 01:41:00,33.4,25.3,29.88,ESE,111,2.3,2.3,72,0.00,CLR,,0.00,WeatherDisplay:10.37,2013-02-25 07:41:00,
2013-02-25 01:46:00,33.4,25.3,29.88,ESE,111,2.3,2.3,72,0.00,CLR,,0.00,WeatherDisplay:10.37,2013-02-25 07:46:00,
2013-02-25 01:51:00,33.3,25.2,29.87,ESE,111,3.5,3.5,72,0.00,CLR,,0.00,WeatherDisplay:10.37,2013-02-25 07:51:00,
2013-02-25 01:56:00,33.2,25.1,29.87,ESE,111,3.0,3.0,72,0.00,CLR,,0.00,WeatherDisplay:10.37,2013-02-25 07:56:00,
2013-02-25 02:01:00,33.2,25.1,29.86,ESE,111,2.3,2.3,72,0.00,CLR,,0.00,WeatherDisplay:10.37,2013-02-25 08:01:00,
2013-02-25 02:06:00,33.1,25.1,29.87,ESE,111,3.5,3.5,72,0.00,CLR,,0.00,WeatherDisplay:10.37,2013-02-25 08:06:00,
2013-02-25 02:11:00,33.1,25.1,29.87,ESE,111,3.5,3.5,72,0.00,CLR,,0.00,WeatherDisplay:10.37,2013-02-25 08:11:00,
2013-02-25 02:16:00,33.0,25.3,29.87,ESE,111,1.2,0.0,73,0.00,CLR,,0.00,WeatherDisplay:10.37,2013-02-25 08:16:00,
2013-02-25 02:21:00,33.0,25.3,29.88,ESE,111,0.0,0.0,73,0.00,CLR,,0.00,WeatherDisplay:10.37,2013-02-25 08:21:00,
2013-02-25 02:26:00,32.9,25.2,29.88,ESE,111,3.5,3.5,73,0.00,CLR,,0.00,WeatherDisplay:10.37,2013-02-25 08:26:00,
2013-02-25 02:31:00,32.8,25.1,29.88,ESE,111,2.3,2.3,73,0.00,CLR,,0.00,WeatherDisplay:10.37,2013-02-25 08:31:00,
2013-02-25 02:36:00,32.7,25.0,29.89,ESE,111,0.0,0.0,73,0.00,CLR,,0.00,WeatherDisplay:10.37,2013-02-25 08:36:00,
2013-02-25 02:41:00,32.6,24.9,29.88,ESE,111,4.6,4.6,73,0.00,CLR,,0.00,WeatherDisplay:10.37,2013-02-25 08:41:00,
2013-02-25 02:46:00,32.5,25.1,29.89,ESE,111,3.5,3.5,74,0.00,CLR,,0.00,WeatherDisplay:10.37,2013-02-25 08:46:00,
2013-02-25 02:51:00,32.5,25.1,29.89,ESE,111,3.5,3.5,74,0.00,CLR,,0.00,WeatherDisplay:10.37,2013-02-25 08:51:00,
2013-02-25 02:56:00,32.4,25.0,29.89,ESE,111,3.5,3.5,74,0.00,CLR,,0.00,WeatherDisplay:10.37,2013-02-25 08:56:00,
2013-02-25 03:01:00,32.3,24.9,29.88,ESE,111,1.2,1.2,74,0.00,CLR,,0.00,WeatherDisplay:10.37,2013-02-25 09:01:00,
2013-02-25 03:06:00,32.3,24.9,29.88,ESE,111,3.5,3.5,74,0.00,CLR,,0.00,WeatherDisplay:10.37,2013-02-25 09:06:00,
2013-02-25 03:11:00,32.3,24.9,29.88,ESE,111,2.0,2.0,74,0.00,CLR,,0.00,WeatherDisplay:10.37,2013-02-25 09:11:00,
2013-02-25 03:16:00,32.2,24.8,29.87,ESE,111,3.5,3.5,74,0.00,CLR,,0.00,WeatherDisplay:10.37,2013-02-25 09:16:00,
2013-02-25 03:21:00,32.1,25.1,29.87,ESE,111,3.5,3.5,75,0.00,CLR,,0.00,WeatherDisplay:10.37,2013-02-25 09:21:00,
2013-02-25 03:26:00,32.1,25.1,29.87,ESE,111,2.3,2.3,75,0.00,CLR,,0.00,WeatherDisplay:10.37,2013-02-25 09:26:00,
2013-02-25 03:31:00,32.0,25.0,29.86,ESE,111,2.3,2.3,75,0.00,CLR,,0.00,WeatherDisplay:10.37,2013-02-25 09:31:00,
2013-02-25 03:36:00,32.0,25.0,29.86,ESE,111,3.5,3.5,75,0.00,CLR,,0.00,WeatherDisplay:10.37,2013-02-25 09:36:00,
2013-02-25 03:41:00,32.0,25.0,29.86,ESE,111,2.0,2.0,75,0.00,CLR,,0.00,WeatherDisplay:10.37,2013-02-25 09:41:00,
2013-02-25 03:46:00,32.1,25.1,29.86,ESE,111,0.0,0.0,75,0.00,CLR,,0.00,WeatherDisplay:10.37,2013-02-25 09:46:00,
2013-02-25 03:51:00,32.1,25.1,29.86,ESE,111,0.0,0.1,75,0.00,CLR,,0.00,WeatherDisplay:10.37,2013-02-25 09:51:00,
2013-02-25 03:56:00,32.1,25.1,29.86,ESE,111,3.5,3.5,75,0.00,CLR,,0.00,WeatherDisplay:10.37,2013-02-25 09:56:00,
2013-02-25 04:01:00,32.1,25.4,29.86,ESE,111,3.5,3.5,76,0.00,CLR,,0.00,WeatherDisplay:10.37,2013-02-25 10:01:00,
2013-02-25 04:06:00,32.1,25.1,29.86,ESE,111,3.5,3.5,75,0.00,CLR,,0.00,WeatherDisplay:10.37,2013-02-25 10:06:00,
2013-02-25 04:11:00,32.1,25.1,29.86,ESE,111,1.2,1.2,75,0.00,CLR,,0.00,WeatherDisplay:10.37,2013-02-25 10:11:00,
2013-02-25 04:16:00,32.0,25.0,29.85,ESE,111,3.5,3.5,75,0.00,CLR,,0.00,WeatherDisplay:10.37,2013-02-25 10:16:00,
2013-02-25 04:21:00,32.0,25.3,29.85,ESE,111,2.3,2.3,76,0.00,CLR,,0.00,WeatherDisplay:10.37,2013-02-25 10:21:00,
2013-02-25 04:26:00,32.0,25.3,29.85,ESE,111,3.0,3.0,76,0.00,CLR,,0.00,WeatherDisplay:10.37,2013-02-25 10:26:00,
2013-02-25 04:31:00,32.0,25.3,29.85,ESE,111,3.5,3.5,76,0.00,CLR,,0.00,WeatherDisplay:10.37,2013-02-25 10:31:00,
2013-02-25 04:36:00,32.0,25.3,29.85,ESE,111,1.2,1.2,76,0.00,CLR,,0.00,WeatherDisplay:10.37,2013-02-25 10:36:00,
2013-02-25 04:41:00,31.9,25.2,29.85,ESE,111,2.3,2.3,76,0.00,CLR,,0.00,WeatherDisplay:10.37,2013-02-25 10:41:00,
2013-02-25 04:46:00,31.8,25.1,29.86,ESE,111,3.5,3.5,76,0.00,CLR,,0.00,WeatherDisplay:10.37,2013-02-25 10:46:00,
2013-02-25 04:51:00,31.6,24.9,29.86,ESE,111,3.5,3.5,76,0.00,CLR,,0.00,WeatherDisplay:10.37,2013-02-25 10:51:00,
2013-02-25 04:56:00,31.5,25.1,29.86,ESE,111,2.3,2.3,77,0.00,CLR,,0.00,WeatherDisplay:10.37,2013-02-25 10:56:00,
2013-02-25 05:01:00,31.5,25.1,29.86,ESE,111,1.2,1.2,77,0.00,CLR,,0.00,WeatherDisplay:10.37,2013-02-25 11:01:00,
2013-02-25 05:06:00,31.4,25.0,29.86,ESE,111,1.2,1.2,77,0.00,CLR,,0.00,WeatherDisplay:10.37,2013-02-25 11:06:00,
2013-02-25 05:11:00,31.3,24.9,29.86,ESE,111,3.5,3.5,77,0.00,CLR,,0.00,WeatherDisplay:10.37,2013-02-25 11:11:00,
2013-02-25 05:16:00,31.2,24.8,29.86,ESE,111,3.5,3.5,77,0.00,CLR,,0.00,WeatherDisplay:10.37,2013-02-25 11:16:00,
2013-02-25 05:21:00,31.1,24.7,29.86,ESE,111,1.2,0.0,77,0.00,CLR,,0.00,WeatherDisplay:10.37,2013-02-25 11:21:00,
2013-02-25 05:26:00,31.0,24.6,29.86,ESE,111,0.0,0.5,77,0.00,CLR,,0.00,WeatherDisplay:10.37,2013-02-25 11:26:00,
2013-02-25 05:31:00,31.0,24.9,29.87,ESE,111,2.3,2.3,78,0.00,CLR,,0.00,WeatherDisplay:10.37,2013-02-25 11:31:00,
2013-02-25 05:36:00,30.9,24.8,29.87,ESE,111,3.5,3.5,78,0.00,CLR,,0.00,WeatherDisplay:10.37,2013-02-25 11:36:00,
2013-02-25 05:41:00,30.8,24.7,29.87,ESE,111,4.6,4.6,78,0.00,CLR,,0.00,WeatherDisplay:10.37,2013-02-25 11:41:00,
2013-02-25 05:46:00,30.8,24.7,29.88,ESE,111,3.5,3.5,78,0.00,CLR,,0.00,WeatherDisplay:10.37,2013-02-25 11:46:00,
2013-02-25 05:51:00,30.8,24.7,29.89,ESE,111,0.0,0.4,78,0.00,CLR,,0.00,WeatherDisplay:10.37,2013-02-25 11:51:00,
2013-02-25 05:56:00,30.8,24.7,29.89,ESE,111,3.0,3.0,78,0.00,CLR,,0.00,WeatherDisplay:10.37,2013-02-25 11:56:00,
2013-02-25 06:01:00,30.8,24.7,29.89,ESE,111,0.0,0.4,78,0.00,CLR,,0.00,WeatherDisplay:10.37,2013-02-25 12:01:00,
2013-02-25 06:06:00,30.8,24.7,29.89,ESE,111,2.3,2.3,78,0.00,CLR,,0.00,WeatherDisplay:10.37,2013-02-25 12:06:00,
2013-02-25 06:11:00,30.8,24.7,29.89,ESE,111,2.0,2.0,78,0.00,CLR,,0.00,WeatherDisplay:10.37,2013-02-25 12:11:00,
2013-02-25 06:16:00,30.7,25.0,29.89,ESE,111,2.3,0.0,79,0.00,CLR,,0.00,WeatherDisplay:10.37,2013-02-25 12:16:00,
2013-02-25 06:21:00,30.6,24.9,29.89,ESE,111,0.0,0.0,79,0.00,CLR,,0.00,WeatherDisplay:10.37,2013-02-25 12:21:00,
2013-02-25 06:26:00,30.6,24.9,29.89,ESE,111,0.0,0.1,79,0.00,CLR,,0.00,WeatherDisplay:10.37,2013-02-25 12:26:00,
2013-02-25 06:31:00,30.5,24.8,29.89,ESE,111,3.5,3.5,79,0.00,CLR,,0.00,WeatherDisplay:10.37,2013-02-25 12:31:00,
2013-02-25 06:36:00,30.5,24.8,29.89,ESE,111,1.2,1.2,79,0.00,CLR,,0.00,WeatherDisplay:10.37,2013-02-25 12:36:00,
2013-02-25 06:42:00,30.4,25.0,29.89,ESE,111,2.0,2.0,80,0.00,CLR,,0.00,WeatherDisplay:10.37,2013-02-25 12:42:00,
2013-02-25 06:47:00,30.4,25.0,29.89,ESE,111,3.5,3.5,80,0.00,CLR,,0.00,WeatherDisplay:10.37,2013-02-25 12:47:00,
2013-02-25 06:53:00,30.3,24.9,29.88,ESE,111,3.5,3.5,80,0.00,CLR,,0.00,WeatherDisplay:10.37,2013-02-25 12:53:00,
2013-02-25 06:58:00,30.3,24.9,29.87,ESE,110,4.6,4.6,80,0.00,CLR,,0.00,WeatherDisplay:10.37,2013-02-25 12:58:00,
2013-02-25 07:03:00,30.4,25.0,29.87,ESE,111,3.5,3.5,80,0.00,CLR,,0.00,WeatherDisplay:10.37,2013-02-25 13:03:00,
2013-02-25 07:08:00,30.4,25.0,29.87,ESE,111,2.3,2.3,80,0.00,CLR,,0.00,WeatherDisplay:10.37,2013-02-25 13:08:00,
2013-02-25 07:13:00,30.4,25.0,29.87,ESE,110,0.0,0.0,80,0.00,CLR,,0.00,WeatherDisplay:10.37,2013-02-25 13:13:00,
2013-02-25 07:18:00,30.5,25.4,29.87,ESE,110,6.0,6.0,81,0.00,CLR,,0.00,WeatherDisplay:10.37,2013-02-25 13:18:00,
2013-02-25 07:23:00,30.6,25.5,29.87,ESE,110,4.6,4.6,81,0.00,CLR,,0.00,WeatherDisplay:10.37,2013-02-25 13:23:00,
2013-02-25 07:28:00,30.7,25.6,29.88,ESE,110,5.0,5.0,81,0.00,CLR,,0.00,WeatherDisplay:10.37,2013-02-25 13:28:00,
2013-02-25 07:33:00,30.8,25.4,29.89,ESE,110,4.6,4.6,80,0.00,CLR,,0.00,WeatherDisplay:10.37,2013-02-25 13:33:00,
2013-02-25 07:38:00,30.9,25.5,29.89,ESE,109,2.3,2.3,80,0.00,CLR,,0.00,WeatherDisplay:10.37,2013-02-25 13:38:00,
2013-02-25 07:43:00,31.0,25.6,29.89,ESE,109,2.0,2.0,80,0.00,CLR,,0.00,WeatherDisplay:10.37,2013-02-25 13:43:00,
2013-02-25 07:48:00,31.0,25.6,29.89,ESE,109,2.0,2.0,80,0.00,CLR,,0.00,WeatherDisplay:10.37,2013-02-25 13:48:00,
2013-02-25 07:54:00,31.1,26.0,29.89,ESE,109,3.5,3.6,81,0.00,CLR,,0.00,WeatherDisplay:10.37,2013-02-25 13:54:00,
2013-02-25 07:59:00,31.2,25.7,29.89,ESE,109,3.5,3.5,80,0.00,CLR,,0.00,WeatherDisplay:10.37,2013-02-25 13:59:00,
2013-02-25 08:04:00,31.4,25.9,29.89,ESE,109,1.2,1.2,80,0.00,CLR,,0.00,WeatherDisplay:10.37,2013-02-25 14:04:00,
2013-02-25 08:10:00,31.4,25.9,29.88,ESE,109,4.6,4.6,80,0.00,CLR,,0.00,WeatherDisplay:10.37,2013-02-25 14:10:00,
2013-02-25 08:15:00,31.5,26.0,29.87,ESE,109,3.0,3.0,80,0.00,CLR,,0.00,WeatherDisplay:10.37,2013-02-25 14:15:00,
2013-02-25 08:20:00,31.6,26.1,29.87,East,97,7.0,7.0,80,0.00,CLR,,0.00,WeatherDisplay:10.37,2013-02-25 14:20:00,
2013-02-25 08:25:00,31.7,26.2,29.86,East,95,6.9,6.9,80,0.00,CLR,,0.00,WeatherDisplay:10.37,2013-02-25 14:25:00,
2013-02-25 08:30:00,31.8,26.3,29.86,East,84,11.5,11.5,80,0.00,CLR,,0.00,WeatherDisplay:10.37,2013-02-25 14:30:00,
2013-02-25 08:35:00,31.9,26.4,29.87,East,83,4.6,4.6,80,0.00,CLR,,0.00,WeatherDisplay:10.37,2013-02-25 14:35:00,
2013-02-25 08:40:00,32.1,26.6,29.87,East,83,6.9,6.9,80,0.00,CLR,,0.00,WeatherDisplay:10.37,2013-02-25 14:40:00,
2013-02-25 08:45:00,32.2,26.4,29.88,East,82,4.0,4.0,79,0.00,CLR,,0.00,WeatherDisplay:10.37,2013-02-25 14:45:00,
2013-02-25 08:50:00,32.3,26.5,29.87,East,82,3.5,3.5,79,0.00,CLR,,0.00,WeatherDisplay:10.37,2013-02-25 14:50:00,
2013-02-25 08:55:00,32.4,26.6,29.88,East,82,5.8,5.8,79,0.00,CLR,,0.00,WeatherDisplay:10.37,2013-02-25 14:55:00,
2013-02-25 09:00:00,32.5,26.7,29.88,East,82,1.2,0.0,79,0.00,CLR,,0.00,WeatherDisplay:10.37,2013-02-25 15:00:00,
2013-02-25 09:05:00,32.7,26.9,29.88,East,82,3.5,3.5,79,0.00,CLR,,0.00,WeatherDisplay:10.37,2013-02-25 15:05:00,
2013-02-25 09:10:00,32.9,27.1,29.88,East,82,4.6,4.6,79,0.00,CLR,,0.00,WeatherDisplay:10.37,2013-02-25 15:10:00,
2013-02-25 09:15:00,32.9,26.8,29.88,East,82,4.6,4.6,78,0.00,CLR,,0.00,WeatherDisplay:10.37,2013-02-25 15:15:00,
2013-02-25 09:20:00,33.0,26.9,29.87,East,82,3.5,3.5,78,0.00,CLR,,0.00,WeatherDisplay:10.37,2013-02-25 15:20:00,
2013-02-25 09:25:00,33.1,27.0,29.87,East,80,8.1,8.1,78,0.00,CLR,,0.00,WeatherDisplay:10.37,2013-02-25 15:25:00,
2013-02-25 09:30:00,33.2,27.1,29.88,East,80,3.5,3.5,78,0.00,CLR,,0.00,WeatherDisplay:10.37,2013-02-25 15:30:00,
2013-02-25 09:35:00,33.2,27.1,29.88,East,80,3.5,3.5,78,0.00,CLR,,0.00,WeatherDisplay:10.37,2013-02-25 15:35:00,
2013-02-25 09:40:00,33.3,27.2,29.88,East,80,3.5,3.5,78,0.00,CLR,,0.00,WeatherDisplay:10.37,2013-02-25 15:40:00,
2013-02-25 09:45:00,33.3,26.9,29.87,East,80,6.9,6.9,77,0.00,CLR,,0.00,WeatherDisplay:10.37,2013-02-25 15:45:00,
2013-02-25 09:50:00,33.3,26.9,29.87,East,80,5.8,5.8,77,0.00,CLR,,0.00,WeatherDisplay:10.37,2013-02-25 15:50:00,
2013-02-25 09:55:00,33.3,26.9,29.87,ENE,74,9.2,9.2,77,0.00,CLR,,0.00,WeatherDisplay:10.37,2013-02-25 15:55:00,
2013-02-25 10:00:00,33.3,26.9,29.87,ENE,71,8.1,8.1,77,0.00,CLR,,0.00,WeatherDisplay:10.37,2013-02-25 16:00:00,
2013-02-25 10:05:00,33.4,27.3,29.88,ENE,71,6.9,6.9,78,0.00,CLR,,0.00,WeatherDisplay:10.37,2013-02-25 16:05:00,
2013-02-25 10:11:00,33.5,27.1,29.88,ENE,71,5.0,5.0,77,0.00,CLR,,0.00,WeatherDisplay:10.37,2013-02-25 16:11:00,
2013-02-25 10:16:00,33.6,27.2,29.88,ENE,71,3.5,3.5,77,0.00,CLR,,0.00,WeatherDisplay:10.37,2013-02-25 16:16:00,
2013-02-25 10:21:00,33.7,27.3,29.87,ENE,71,5.0,5.0,77,0.00,CLR,,0.00,WeatherDisplay:10.37,2013-02-25 16:21:00,
2013-02-25 10:26:00,33.7,27.3,29.86,ENE,69,3.5,3.5,77,0.00,CLR,,0.00,WeatherDisplay:10.37,2013-02-25 16:26:00,
2013-02-25 10:31:00,33.7,27.3,29.87,ENE,69,3.5,3.5,77,0.00,CLR,,0.00,WeatherDisplay:10.37,2013-02-25 16:31:00,
2013-02-25 10:36:00,33.7,27.3,29.87,ENE,69,3.5,3.5,77,0.00,CLR,,0.00,WeatherDisplay:10.37,2013-02-25 16:36:00,
2013-02-25 10:41:00,33.8,27.4,29.88,ENE,69,3.5,3.5,77,0.00,CLR,,0.00,WeatherDisplay:10.37,2013-02-25 16:41:00,
2013-02-25 10:46:00,33.9,27.4,29.88,ENE,68,4.6,4.6,77,0.00,CLR,,0.00,WeatherDisplay:10.37,2013-02-25 16:46:00,
2013-02-25 10:51:00,33.9,27.4,29.88,ENE,68,6.9,6.9,77,0.00,CLR,,0.00,WeatherDisplay:10.37,2013-02-25 16:51:00,
2013-02-25 10:56:00,33.9,27.4,29.88,ENE,65,10.4,10.4,77,0.00,CLR,,0.00,WeatherDisplay:10.37,2013-02-25 16:56:00,
2013-02-25 11:01:00,34.1,27.6,29.88,ENE,66,3.5,3.5,77,0.00,CLR,,0.00,WeatherDisplay:10.37,2013-02-25 17:01:00,
2013-02-25 11:06:00,34.3,27.5,29.88,ENE,63,4.6,4.6,76,0.00,CLR,,0.00,WeatherDisplay:10.37,2013-02-25 17:06:00,
2013-02-25 11:11:00,34.4,27.6,29.88,ENE,63,10.4,10.4,76,0.00,CLR,,0.00,WeatherDisplay:10.37,2013-02-25 17:11:00,
2013-02-25 11:16:00,34.4,27.6,29.87,ENE,57,8.1,8.1,76,0.00,CLR,,0.00,WeatherDisplay:10.37,2013-02-25 17:16:00,
2013-02-25 11:21:00,34.6,27.8,29.87,NE,53,6.0,6.0,76,0.00,CLR,,0.00,WeatherDisplay:10.37,2013-02-25 17:21:00,
2013-02-25 11:26:00,34.6,27.5,29.87,NE,50,5.8,5.8,75,0.00,CLR,,0.00,WeatherDisplay:10.37,2013-02-25 17:26:00,
2013-02-25 11:31:00,34.9,27.8,29.87,NE,50,6.9,6.9,75,0.00,CLR,,0.00,WeatherDisplay:10.37,2013-02-25 17:31:00,
2013-02-25 11:36:00,35.1,28.0,29.86,NE,49,4.0,4.0,75,0.00,CLR,,0.00,WeatherDisplay:10.37,2013-02-25 17:36:00,
2013-02-25 11:41:00,35.3,27.8,29.86,NE,49,6.0,6.0,74,0.00,CLR,,0.00,WeatherDisplay:10.37,2013-02-25 17:41:00,
2013-02-25 11:46:00,35.3,27.8,29.86,NE,48,10.4,10.4,74,0.00,CLR,,0.00,WeatherDisplay:10.37,2013-02-25 17:46:00,
2013-02-25 11:51:00,35.3,27.8,29.86,NE,46,9.0,9.0,74,0.00,CLR,,0.00,WeatherDisplay:10.37,2013-02-25 17:51:00,
2013-02-25 11:56:00,35.4,27.6,29.86,NE,46,9.2,9.2,73,0.00,CLR,,0.00,WeatherDisplay:10.37,2013-02-25 17:56:00,
2013-02-25 12:01:00,35.5,27.7,29.85,NE,46,9.2,9.2,73,0.00,CLR,,0.00,WeatherDisplay:10.37,2013-02-25 18:01:00,
2013-02-25 12:06:00,35.6,27.8,29.84,NE,45,5.8,5.8,73,0.00,CLR,,0.00,WeatherDisplay:10.37,2013-02-25 18:06:00,
2013-02-25 12:11:00,35.8,28.0,29.84,NE,45,6.9,6.9,73,0.00,CLR,,0.00,WeatherDisplay:10.37,2013-02-25 18:11:00,
2013-02-25 12:16:00,35.8,28.0,29.84,NE,45,6.0,6.0,73,0.00,CLR,,0.00,WeatherDisplay:10.37,2013-02-25 18:16:00,
2013-02-25 12:21:00,35.8,27.7,29.84,NE,44,3.5,3.5,72,0.00,CLR,,0.00,WeatherDisplay:10.37,2013-02-25 18:21:00,
2013-02-25 12:26:00,35.9,27.7,29.84,NE,44,6.9,6.9,72,0.00,CLR,,0.00,WeatherDisplay:10.37,2013-02-25 18:26:00,
2013-02-25 12:31:00,35.9,27.7,29.83,NE,44,9.2,9.2,72,0.00,CLR,,0.00,WeatherDisplay:10.37,2013-02-25 18:31:00,
2013-02-25 12:36:00,35.8,27.7,29.83,NE,41,5.8,5.8,72,0.00,CLR,,0.00,WeatherDisplay:10.37,2013-02-25 18:36:00,
2013-02-25 12:41:00,35.8,27.7,29.83,NE,41,5.8,5.8,72,0.00,CLR,,0.00,WeatherDisplay:10.37,2013-02-25 18:41:00,
2013-02-25 12:46:00,35.9,27.7,29.83,NE,40,6.9,6.9,72,0.00,CLR,,0.00,WeatherDisplay:10.37,2013-02-25 18:46:00,
2013-02-25 12:51:00,36.0,27.8,29.83,NE,39,11.0,11.0,72,0.00,CLR,,0.00,WeatherDisplay:10.37,2013-02-25 18:51:00,
2013-02-25 12:56:00,36.0,27.8,29.83,NE,38,5.8,5.8,72,0.00,CLR,,0.00,WeatherDisplay:10.37,2013-02-25 18:56:00,
2013-02-25 13:01:00,36.1,27.9,29.83,NE,38,4.6,4.6,72,0.00,CLR,,0.00,WeatherDisplay:10.37,2013-02-25 19:01:00,
2013-02-25 13:06:00,36.2,27.7,29.83,NE,37,3.5,3.5,71,0.00,CLR,,0.00,WeatherDisplay:10.37,2013-02-25 19:06:00,
2013-02-25 13:11:00,36.2,27.7,29.82,NE,36,9.2,9.2,71,0.00,CLR,,0.00,WeatherDisplay:10.37,2013-02-25 19:11:00,
2013-02-25 13:16:00,36.2,27.7,29.81,NE,35,10.4,10.4,71,0.00,CLR,,0.00,WeatherDisplay:10.37,2013-02-25 19:16:00,
2013-02-25 13:21:00,36.3,27.8,29.81,NE,34,4.6,4.6,71,0.00,CLR,,0.00,WeatherDisplay:10.37,2013-02-25 19:21:00,
2013-02-25 13:26:00,36.4,27.9,29.81,NE,34,3.5,3.5,71,0.00,CLR,,0.00,WeatherDisplay:10.37,2013-02-25 19:26:00,
2013-02-25 13:31:00,36.4,27.9,29.80,NE,34,9.2,9.2,71,0.00,CLR,,0.00,WeatherDisplay:10.37,2013-02-25 19:31:00,
2013-02-25 13:36:00,36.4,27.9,29.80,NE,34,5.8,5.8,71,0.00,CLR,,0.00,WeatherDisplay:10.37,2013-02-25 19:36:00,
2013-02-25 13:41:00,36.5,28.0,29.80,NE,34,4.6,4.6,71,0.00,CLR,,0.00,WeatherDisplay:10.37,2013-02-25 19:41:00,
2013-02-25 13:46:00,36.5,27.6,29.79,NE,34,3.5,3.5,70,0.00,CLR,,0.00,WeatherDisplay:10.37,2013-02-25 19:46:00,
2013-02-25 13:51:00,36.6,27.7,29.79,NE,34,6.9,6.9,70,0.00,CLR,,0.00,WeatherDisplay:10.37,2013-02-25 19:51:00,
2013-02-25 13:56:00,36.6,27.7,29.79,NE,34,5.8,5.8,70,0.00,CLR,,0.00,WeatherDisplay:10.37,2013-02-25 19:56:00,
2013-02-25 14:01:00,36.7,27.8,29.79,NNE,33,10.0,10.0,70,0.00,CLR,,0.00,WeatherDisplay:10.37,2013-02-25 20:01:00,
2013-02-25 14:06:00,36.8,27.9,29.79,NNE,33,1.2,1.2,70,0.00,CLR,,0.00,WeatherDisplay:10.37,2013-02-25 20:06:00,
2013-02-25 14:11:00,36.9,28.0,29.79,NNE,33,6.9,6.9,70,0.00,CLR,,0.00,WeatherDisplay:10.37,2013-02-25 20:11:00,
2013-02-25 14:16:00,37.0,27.8,29.80,NNE,32,1.2,1.2,69,0.00,CLR,,0.00,WeatherDisplay:10.37,2013-02-25 20:16:00,
2013-02-25 14:21:00,37.1,27.9,29.79,NNE,32,3.5,3.5,69,0.00,CLR,,0.00,WeatherDisplay:10.37,2013-02-25 20:21:00,
2013-02-25 14:26:00,37.2,28.0,29.79,NNE,32,3.5,3.5,69,0.00,CLR,,0.00,WeatherDisplay:10.37,2013-02-25 20:26:00,
2013-02-25 14:31:00,37.3,28.1,29.80,NNE,32,4.0,4.0,69,0.00,CLR,,0.00,WeatherDisplay:10.37,2013-02-25 20:31:00,
2013-02-25 14:36:00,37.3,28.1,29.80,NNE,32,1.2,1.2,69,0.00,CLR,,0.00,WeatherDisplay:10.37,2013-02-25 20:36:00,
2013-02-25 14:41:00,37.4,28.2,29.80,NNE,32,0.0,0.0,69,0.00,CLR,,0.00,WeatherDisplay:10.37,2013-02-25 20:41:00,
2013-02-25 14:46:00,37.3,28.1,29.79,NNE,32,5.8,5.8,69,0.00,CLR,,0.00,WeatherDisplay:10.37,2013-02-25 20:46:00,
2013-02-25 14:51:00,37.4,28.2,29.78,NNE,32,5.8,5.8,69,0.00,CLR,,0.00,WeatherDisplay:10.37,2013-02-25 20:51:00,
2013-02-25 14:56:00,37.4,28.2,29.80,NNE,32,4.6,4.6,69,0.00,CLR,,0.00,WeatherDisplay:10.37,2013-02-25 20:56:00,
2013-02-25 15:01:00,37.5,28.2,29.80,NNE,32,3.5,3.5,69,0.00,CLR,,0.00,WeatherDisplay:10.37,2013-02-25 21:01:00,
2013-02-25 15:06:00,37.5,28.2,29.81,NNE,32,2.0,2.0,69,0.00,CLR,,0.00,WeatherDisplay:10.37,2013-02-25 21:06:00,
2013-02-25 15:11:00,37.6,28.0,29.81,NNE,32,1.2,1.2,68,0.00,CLR,,0.00,WeatherDisplay:10.37,2013-02-25 21:11:00,
2013-02-25 15:16:00,37.6,28.0,29.80,NNE,32,3.5,3.5,68,0.00,CLR,,0.00,WeatherDisplay:10.37,2013-02-25 21:16:00,
2013-02-25 15:21:00,37.7,28.1,29.81,NNE,32,4.6,4.6,68,0.00,CLR,,0.00,WeatherDisplay:10.37,2013-02-25 21:21:00,
2013-02-25 15:26:00,37.7,28.1,29.80,NNE,32,5.8,5.8,68,0.00,CLR,,0.00,WeatherDisplay:10.37,2013-02-25 21:26:00,
2013-02-25 15:31:00,37.7,28.1,29.80,NNE,32,2.3,2.3,68,0.00,CLR,,0.00,WeatherDisplay:10.37,2013-02-25 21:31:00,
2013-02-25 15:36:00,37.7,28.1,29.80,NNE,32,3.5,3.5,68,0.00,CLR,,0.00,WeatherDisplay:10.37,2013-02-25 21:36:00,
2013-02-25 15:41:00,37.7,28.1,29.80,NNE,32,3.5,3.5,68,0.00,CLR,,0.00,WeatherDisplay:10.37,2013-02-25 21:41:00,
2013-02-25 15:46:00,37.7,28.1,29.79,NNE,32,2.3,2.3,68,0.00,CLR,,0.00,WeatherDisplay:10.37,2013-02-25 21:46:00,
2013-02-25 15:51:00,37.5,28.6,29.79,NNE,32,8.1,8.1,70,0.00,CLR,,0.00,WeatherDisplay:10.37,2013-02-25 21:51:00,
2013-02-25 15:56:00,36.5,29.7,29.78,NNE,32,11.5,11.5,76,0.00,CLR,,0.00,WeatherDisplay:10.37,2013-02-25 21:56:00,
2013-02-25 16:01:00,35.9,29.4,29.77,NNE,25,9.2,9.2,77,0.00,CLR,,0.00,WeatherDisplay:10.37,2013-02-25 22:01:00,
2013-02-25 16:06:00,35.8,29.6,29.78,NNE,18,18.4,18.4,78,0.00,CLR,,0.00,WeatherDisplay:10.37,2013-02-25 22:06:00,
2013-02-25 16:11:00,35.4,30.1,29.78,NNE,21,11.5,11.5,81,0.00,CLR,,0.00,WeatherDisplay:10.37,2013-02-25 22:11:00,
2013-02-25 16:16:00,35.0,30.4,29.78,NNE,20,10.4,10.4,83,0.00,CLR,,0.00,WeatherDisplay:10.37,2013-02-25 22:16:00,
2013-02-25 16:21:00,34.7,30.4,29.78,NNE,19,11.5,11.5,84,0.00,CLR,,0.00,WeatherDisplay:10.37,2013-02-25 22:21:00,
2013-02-25 16:26:00,34.4,30.4,29.77,NNE,24,13.8,13.8,85,0.00,CLR,,0.00,WeatherDisplay:10.37,2013-02-25 22:26:00,
2013-02-25 16:31:00,34.1,30.6,29.77,NNE,24,10.4,10.4,87,0.00,CLR,,0.00,WeatherDisplay:10.37,2013-02-25 22:31:00,
2013-02-25 16:36:00,33.7,30.5,29.76,NNE,22,4.6,4.6,88,0.00,CLR,,0.00,WeatherDisplay:10.37,2013-02-25 22:36:00,
2013-02-25 16:41:00,33.5,30.6,29.76,NNE,22,9.2,9.2,89,0.00,CLR,,0.00,WeatherDisplay:10.37,2013-02-25 22:41:00,
2013-02-25 16:46:00,33.3,30.4,29.76,NNE,24,6.9,6.9,89,0.00,CLR,,0.00,WeatherDisplay:10.37,2013-02-25 22:46:00,
2013-02-25 16:51:00,33.2,30.6,29.76,NNE,23,4.0,4.0,90,0.00,CLR,,0.00,WeatherDisplay:10.37,2013-02-25 22:51:00,
2013-02-25 16:56:00,33.0,30.7,29.76,NNE,22,3.5,3.5,91,0.00,CLR,,0.00,WeatherDisplay:10.37,2013-02-25 22:56:00,
2013-02-25 17:01:00,33.0,30.7,29.76,NNE,22,4.6,4.6,91,0.00,CLR,,0.00,WeatherDisplay:10.37,2013-02-25 23:01:00,
2013-02-25 17:06:00,33.0,30.7,29.75,NNE,22,3.5,3.5,91,0.00,CLR,,0.00,WeatherDisplay:10.37,2013-02-25 23:06:00,
2013-02-25 17:11:00,33.0,30.7,29.75,NNE,22,4.6,4.6,91,0.00,CLR,,0.00,WeatherDisplay:10.37,2013-02-25 23:11:00,
2013-02-25 17:16:00,33.0,30.9,29.75,NNE,22,5.8,5.8,92,0.00,CLR,,0.00,WeatherDisplay:10.37,2013-02-25 23:16:00,
2013-02-25 17:21:00,33.0,30.9,29.76,NNE,26,10.4,10.4,92,0.00,CLR,,0.00,WeatherDisplay:10.37,2013-02-25 23:21:00,
2013-02-25 17:26:00,33.0,30.9,29.75,NNE,26,5.8,5.8,92,0.00,CLR,,0.00,WeatherDisplay:10.37,2013-02-25 23:26:00,
2013-02-25 17:31:00,33.0,31.2,29.74,NNE,26,9.2,9.2,93,0.00,CLR,,0.00,WeatherDisplay:10.37,2013-02-25 23:31:00,
2013-02-25 17:36:00,33.0,31.2,29.73,NNE,25,5.8,5.8,93,0.00,CLR,,0.00,WeatherDisplay:10.37,2013-02-25 23:36:00,
2013-02-25 17:41:00,33.0,31.2,29.73,NNE,21,10.4,10.4,93,0.00,CLR,,0.00,WeatherDisplay:10.37,2013-02-25 23:41:00,
2013-02-25 17:46:00,33.0,31.2,29.72,NNE,17,9.2,9.2,93,0.00,CLR,,0.00,WeatherDisplay:10.37,2013-02-25 23:46:00,
2013-02-25 17:51:00,33.0,31.2,29.72,NNE,16,9.0,9.0,93,0.00,CLR,,0.00,WeatherDisplay:10.37,2013-02-25 23:51:00,
2013-02-25 17:56:00,33.1,31.3,29.71,NNE,22,5.8,5.8,93,0.00,CLR,,0.00,WeatherDisplay:10.37,2013-02-25 23:56:00,
2013-02-25 18:01:00,33.1,31.3,29.71,NNE,13,11.5,11.5,93,0.00,CLR,,0.00,WeatherDisplay:10.37,2013-02-26 00:01:00,
2013-02-25 18:06:00,33.2,31.4,29.71,NNE,19,11.5,11.5,93,0.00,CLR,,0.00,WeatherDisplay:10.37,2013-02-26 00:06:00,
2013-02-25 18:11:00,33.2,31.7,29.71,NNE,19,9.2,9.2,94,0.00,CLR,,0.00,WeatherDisplay:10.37,2013-02-26 00:11:00,
2013-02-25 18:16:00,33.3,31.8,29.71,NNE,21,9.2,9.2,94,0.00,CLR,,0.00,WeatherDisplay:10.37,2013-02-26 00:16:00,
2013-02-25 18:21:00,33.3,31.8,29.70,NNE,19,11.0,11.0,94,0.00,CLR,,0.00,WeatherDisplay:10.37,2013-02-26 00:21:00,
2013-02-25 18:27:00,33.4,31.9,29.69,NNE,24,10.4,10.4,94,0.00,CLR,,0.00,WeatherDisplay:10.37,2013-02-26 00:27:00,
2013-02-25 18:32:00,33.6,32.1,29.68,NNE,21,12.7,12.7,94,0.00,CLR,,0.00,WeatherDisplay:10.37,2013-02-26 00:32:00,
2013-02-25 18:37:00,33.8,32.3,29.67,NNE,22,11.5,11.5,94,0.00,CLR,,0.00,WeatherDisplay:10.37,2013-02-26 00:37:00,
2013-02-25 18:42:00,34.0,32.5,29.67,NNE,23,11.5,11.5,94,0.01,RA,,0.01,WeatherDisplay:10.37,2013-02-26 00:42:00,
2013-02-25 18:47:00,34.2,32.7,29.66,North,9,19.6,19.6,94,0.01,RA,,0.01,WeatherDisplay:10.37,2013-02-26 00:47:00,
2013-02-25 18:52:00,34.3,32.8,29.66,NNE,14,10.4,10.4,94,0.01,CLR,,0.01,WeatherDisplay:10.37,2013-02-26 00:52:00,
2013-02-25 18:57:00,34.4,32.9,29.66,NNE,17,13.8,13.8,94,0.01,CLR,,0.01,WeatherDisplay:10.37,2013-02-26 00:57:00,
2013-02-25 19:02:00,34.4,32.9,29.65,NNE,17,12.7,12.7,94,0.01,CLR,,0.01,WeatherDisplay:10.37,2013-02-26 01:02:00,
2013-02-25 19:07:00,34.7,33.2,29.64,NNE,18,12.7,12.7,94,0.02,RA,,0.02,WeatherDisplay:10.37,2013-02-26 01:07:00,
2013-02-25 19:12:00,34.9,33.3,29.64,NNE,19,11.5,11.5,94,0.02,RA,,0.02,WeatherDisplay:10.37,2013-02-26 01:12:00,
2013-02-25 19:17:00,35.1,33.3,29.64,North,360,18.4,18.4,93,0.02,,,0.02,WeatherDisplay:10.37,2013-02-26 01:17:00,
2013-02-25 19:22:00,35.2,33.4,29.64,NNE,18,13.8,13.8,93,0.02,CLR,,0.02,WeatherDisplay:10.37,2013-02-26 01:22:00,
2013-02-25 19:27:00,35.5,33.7,29.65,NNE,24,11.5,11.5,93,0.02,CLR,,0.02,WeatherDisplay:10.37,2013-02-26 01:27:00,
2013-02-25 19:32:00,35.6,33.8,29.65,North,11,13.8,13.8,93,0.03,RA,,0.03,WeatherDisplay:10.37,2013-02-26 01:32:00,
2013-02-25 19:37:00,35.8,33.7,29.65,NNE,24,6.9,6.9,92,0.03,RA,,0.03,WeatherDisplay:10.37,2013-02-26 01:37:00,
2013-02-25 19:42:00,35.9,33.8,29.65,NNE,16,15.0,15.0,92,0.02,,,0.03,WeatherDisplay:10.37,2013-02-26 01:42:00,
2013-02-25 19:47:00,36.0,33.6,29.66,NNE,30,12.7,12.7,91,0.02,CLR,,0.03,WeatherDisplay:10.37,2013-02-26 01:47:00,
2013-02-25 19:52:00,36.1,33.7,29.67,NNE,15,18.0,18.0,91,0.03,RA,,0.04,WeatherDisplay:10.37,2013-02-26 01:52:00,
2013-02-25 19:57:00,36.2,33.5,29.68,NNE,20,10.4,10.4,90,0.03,RA,,0.04,WeatherDisplay:10.37,2013-02-26 01:57:00,
2013-02-25 20:02:00,36.2,33.3,29.70,NE,36,9.2,9.2,89,0.03,,,0.04,WeatherDisplay:10.37,2013-02-26 02:02:00,
2013-02-25 20:07:00,36.3,33.1,29.72,NE,38,4.6,4.6,88,0.02,CLR,,0.04,WeatherDisplay:10.37,2013-02-26 02:07:00,
2013-02-25 20:12:00,36.4,32.9,29.73,NE,39,6.9,6.9,87,0.02,CLR,,0.04,WeatherDisplay:10.37,2013-02-26 02:12:00,
2013-02-25 20:17:00,36.5,32.7,29.73,NE,43,7.0,7.0,86,0.02,CLR,,0.04,WeatherDisplay:10.37,2013-02-26 02:17:00,
2013-02-25 20:22:00,36.8,32.4,29.73,NE,48,9.2,9.2,84,0.02,CLR,,0.04,WeatherDisplay:10.37,2013-02-26 02:22:00,
2013-02-25 20:27:00,36.6,32.2,29.72,NE,48,9.2,9.2,84,0.02,CLR,,0.04,WeatherDisplay:10.37,2013-02-26 02:27:00,
2013-02-25 20:32:00,36.2,31.8,29.71,NE,53,5.8,5.8,84,0.01,CLR,,0.04,WeatherDisplay:10.37,2013-02-26 02:32:00,
2013-02-25 20:37:00,35.8,31.7,29.70,NE,52,5.8,5.8,85,0.01,CLR,,0.04,WeatherDisplay:10.37,2013-02-26 02:37:00,
2013-02-25 20:42:00,35.4,31.6,29.69,NE,44,11.5,11.5,86,0.01,CLR,,0.04,WeatherDisplay:10.37,2013-02-26 02:42:00,
2013-02-25 20:47:00,35.1,31.3,29.68,NE,42,10.4,10.4,86,0.01,CLR,,0.04,WeatherDisplay:10.37,2013-02-26 02:47:00,
2013-02-25 20:52:00,34.8,31.3,29.66,NE,36,10.0,10.0,87,0.00,CLR,,0.04,WeatherDisplay:10.37,2013-02-26 02:52:00,
2013-02-25 20:57:00,34.7,31.5,29.66,NNE,24,11.5,11.5,88,0.00,CLR,,0.04,WeatherDisplay:10.37,2013-02-26 02:57:00,
2013-02-25 21:02:00,34.5,31.6,29.68,NNE,24,9.2,9.2,89,0.00,CLR,,0.04,WeatherDisplay:10.37,2013-02-26 03:02:00,
2013-02-25 21:07:00,34.4,31.5,29.69,NNE,23,11.5,11.5,89,0.00,CLR,,0.04,WeatherDisplay:10.37,2013-02-26 03:07:00,
2013-02-25 21:12:00,34.4,31.5,29.69,NNE,23,4.0,4.0,89,0.01,RA,,0.05,WeatherDisplay:10.37,2013-02-26 03:12:00,
2013-02-25 21:17:00,34.4,31.8,29.68,NNE,26,11.5,11.5,90,0.01,RA,,0.05,WeatherDisplay:10.37,2013-02-26 03:17:00,
2013-02-25 21:22:00,34.4,31.8,29.68,NNE,26,12.7,12.7,90,0.01,CLR,,0.05,WeatherDisplay:10.37,2013-02-26 03:22:00,
2013-02-25 21:27:00,34.3,31.7,29.68,NNE,26,7.0,7.0,90,0.01,CLR,,0.05,WeatherDisplay:10.37,2013-02-26 03:27:00,
2013-02-25 21:32:00,34.1,31.5,29.68,NNE,26,6.9,6.9,90,0.01,CLR,,0.05,WeatherDisplay:10.37,2013-02-26 03:32:00,
2013-02-25 21:37:00,34.1,31.7,29.68,NNE,25,11.5,11.5,91,0.01,CLR,,0.05,WeatherDisplay:10.37,2013-02-26 03:37:00,
2013-02-25 21:42:00,34.1,31.7,29.67,NE,42,5.8,5.8,91,0.02,RA,,0.06,WeatherDisplay:10.37,2013-02-26 03:42:00,
2013-02-25 21:47:00,34.0,31.6,29.67,NE,38,11.5,11.5,91,0.02,RA,,0.06,WeatherDisplay:10.37,2013-02-26 03:47:00,
2013-02-25 21:52:00,34.0,31.9,29.66,NE,38,11.5,11.5,92,0.02,CLR,,0.06,WeatherDisplay:10.37,2013-02-26 03:52:00,
2013-02-25 21:57:00,33.9,31.8,29.67,NNE,28,6.9,6.9,92,0.02,CLR,,0.06,WeatherDisplay:10.37,2013-02-26 03:57:00,
2013-02-25 22:02:00,33.9,31.8,29.67,NNE,28,11.5,11.5,92,0.02,CLR,,0.06,WeatherDisplay:10.37,2013-02-26 04:02:00,
2013-02-25 22:07:00,33.8,31.7,29.67,NNE,29,6.9,6.9,92,0.02,CLR,,0.06,WeatherDisplay:10.37,2013-02-26 04:07:00,
2013-02-25 22:12:00,33.8,31.7,29.66,NNE,31,5.8,5.8,92,0.01,CLR,,0.06,WeatherDisplay:10.37,2013-02-26 04:12:00,
2013-02-25 22:17:00,33.7,31.6,29.66,NNE,28,10.4,10.4,92,0.02,RA,,0.07,WeatherDisplay:10.37,2013-02-26 04:17:00,
2013-02-25 22:22:00,33.7,31.9,29.66,NNE,26,11.5,11.5,93,0.02,RA,,0.07,WeatherDisplay:10.37,2013-02-26 04:22:00,
2013-02-25 22:27:00,33.6,31.8,29.65,NNE,27,10.4,10.4,93,0.02,CLR,,0.07,WeatherDisplay:10.37,2013-02-26 04:27:00,
2013-02-25 22:32:00,33.5,31.7,29.65,NNE,28,4.6,4.6,93,0.02,CLR,,0.07,WeatherDisplay:10.37,2013-02-26 04:32:00,
2013-02-25 22:37:00,33.5,31.7,29.65,NNE,29,8.1,8.1,93,0.02,CLR,,0.07,WeatherDisplay:10.37,2013-02-26 04:37:00,
2013-02-25 22:42:00,33.4,31.6,29.65,NNE,28,9.2,9.2,93,0.01,CLR,,0.07,WeatherDisplay:10.37,2013-02-26 04:42:00,
2013-02-25 22:47:00,33.3,31.5,29.64,NNE,28,10.4,10.4,93,0.01,CLR,,0.07,WeatherDisplay:10.37,2013-02-26 04:47:00,
2013-02-25 22:52:00,33.2,31.4,29.64,NNE,28,4.6,4.6,93,0.01,CLR,,0.07,WeatherDisplay:10.37,2013-02-26 04:52:00,
2013-02-25 22:57:00,33.1,31.3,29.64,NNE,28,3.5,3.5,93,0.01,CLR,,0.07,WeatherDisplay:10.37,2013-02-26 04:57:00,
2013-02-25 23:00:00,33.1,31.3,29.63,NNE,24,16.1,16.1,93,0.01,CLR,,0.07,WeatherDisplay:10.37,2013-02-26 05:00:00,
2013-02-25 23:05:00,33.1,31.6,29.63,NNE,26,5.8,5.8,94,0.01,CLR,,0.07,WeatherDisplay:10.37,2013-02-26 05:05:00,
2013-02-25 23:10:00,33.1,31.3,29.62,NNE,26,3.0,7.0,93,0.00,CLR,,0.07,WeatherDisplay:10.37,2013-02-26 05:10:00,
2013-02-25 23:15:00,33.0,31.5,29.62,NNE,19,9.0,9.0,94,0.00,CLR,,0.07,WeatherDisplay:10.37,2013-02-26 05:15:00,
2013-02-25 23:20:00,33.0,31.5,29.62,NNE,21,6.0,13.0,94,0.00,CLR,,0.07,WeatherDisplay:10.37,2013-02-26 05:20:00,
2013-02-25 23:25:00,33.0,31.5,29.61,NNE,21,5.8,5.8,94,0.00,CLR,,0.07,WeatherDisplay:10.37,2013-02-26 05:25:00,
2013-02-25 23:30:00,33.0,31.5,29.61,NNE,23,9.2,9.2,94,0.00,CLR,,0.07,WeatherDisplay:10.37,2013-02-26 05:30:00,
2013-02-25 23:35:00,33.0,31.5,29.61,NNE,24,13.8,13.8,94,0.00,CLR,,0.07,WeatherDisplay:10.37,2013-02-26 05:35:00,
2013-02-25 23:40:00,33.0,31.5,29.60,NNE,24,11.5,11.5,94,0.00,CLR,,0.07,WeatherDisplay:10.37,2013-02-26 05:40:00,
2013-02-25 23:45:00,33.1,31.6,29.60,NNE,19,11.5,11.5,94,0.01,RA,,0.08,WeatherDisplay:10.37,2013-02-26 05:45:00,
2013-02-25 23:50:00,33.1,31.6,29.60,NNE,20,3.0,12.0,94,0.00,RA,,0.08,WeatherDisplay:10.37,2013-02-26 05:50:00,
2013-02-25 23:55:00,33.2,31.7,29.59,NNE,28,10.4,10.4,94,0.01,CLR,,0.08,WeatherDisplay:10.37,2013-02-26 05:55:00,